Terminal Aerodrome Forecast
Issued by NWS

Home | Current Version | Previous Version | Graphics & Text | Print | Product List | Glossary On
Versions: 1 2 3 4 5 6 7 8 9 10 11 12 13 14 15
000
FTUS42 KMHX 280925 AAA
TAFISO
TAF AMD
KISO 280925Z 2809/2906 32004KT 5SM -DZ BKN008 OVC015
     FM281300 31011G20KT P6SM SCT040
     FM290100 29006KT P6SM SKC
      AMD LTD TO CLD VIS AND WIND=

USA.gov is the U.S. government's official web portal to all federal, state and local government web resources and services.